sensor_id;sensor_type;location;lat;lon;timestamp;P1;durP1;ratioP1;P2;durP2;ratioP2
9689;SDS011;4884;42.614;23.340;2023-04-06T00:01:01;17.37;;;12.57;;
9689;SDS011;4884;42.614;23.340;2023-04-06T00:03:27;20.07;;;14.17;;
9689;SDS011;4884;42.614;23.340;2023-04-06T00:05:52;19.47;;;12.87;;
9689;SDS011;4884;42.614;23.340;2023-04-06T00:08:18;17.47;;;13.33;;
9689;SDS011;4884;42.614;23.340;2023-04-06T00:10:43;20.27;;;14.37;;
9689;SDS011;4884;42.614;23.340;2023-04-06T00:13:09;19.37;;;13.83;;
9689;SDS011;4884;42.614;23.340;2023-04-06T00:15:34;19.53;;;14.60;;
9689;SDS011;4884;42.614;23.340;2023-04-06T00:18:00;20.03;;;13.27;;
9689;SDS011;4884;42.614;23.340;2023-04-06T00:20:25;21.37;;;14.23;;
9689;SDS011;4884;42.614;23.340;2023-04-06T00:22:51;17.97;;;13.80;;
9689;SDS011;4884;42.614;23.340;2023-04-06T00:25:16;17.40;;;13.37;;
9689;SDS011;4884;42.614;23.340;2023-04-06T00:27:42;20.67;;;14.63;;
9689;SDS011;4884;42.614;23.340;2023-04-06T00:30:07;19.50;;;14.43;;
9689;SDS011;4884;42.614;23.340;2023-04-06T00:32:34;17.37;;;12.20;;
9689;SDS011;4884;42.614;23.340;2023-04-06T00:35:01;18.30;;;12.17;;
9689;SDS011;4884;42.614;23.340;2023-04-06T00:37:30;20.07;;;11.87;;
9689;SDS011;4884;42.614;23.340;2023-04-06T00:39:55;19.33;;;13.03;;
9689;SDS011;4884;42.614;23.340;2023-04-06T00:42:21;17.37;;;11.83;;
9689;SDS011;4884;42.614;23.340;2023-04-06T00:45:00;14.60;;;11.27;;
9689;SDS011;4884;42.614;23.340;2023-04-06T00:47:26;16.07;;;11.50;;
9689;SDS011;4884;42.614;23.340;2023-04-06T00:49:52;15.07;;;10.60;;
9689;SDS011;4884;42.614;23.340;2023-04-06T00:52:18;15.53;;;10.97;;
9689;SDS011;4884;42.614;23.340;2023-04-06T00:54:44;14.30;;;10.60;;
9689;SDS011;4884;42.614;23.340;2023-04-06T00:57:10;13.63;;;10.27;;
9689;SDS011;4884;42.614;23.340;2023-04-06T00:59:36;15.20;;;11.00;;
9689;SDS011;4884;42.614;23.340;2023-04-06T01:02:02;17.27;;;11.17;;
9689;SDS011;4884;42.614;23.340;2023-04-06T01:04:27;13.70;;;10.37;;
9689;SDS011;4884;42.614;23.340;2023-04-06T01:06:53;13.60;;;11.20;;
9689;SDS011;4884;42.614;23.340;2023-04-06T01:09:18;17.90;;;11.97;;
9689;SDS011;4884;42.614;23.340;2023-04-06T01:11:44;14.60;;;11.47;;
9689;SDS011;4884;42.614;23.340;2023-04-06T01:14:09;15.00;;;11.37;;
9689;SDS011;4884;42.614;23.340;2023-04-06T01:16:35;14.67;;;10.80;;
9689;SDS011;4884;42.614;23.340;2023-04-06T01:19:01;14.73;;;10.23;;
9689;SDS011;4884;42.614;23.340;2023-04-06T01:21:32;13.40;;;9.93;;
9689;SDS011;4884;42.614;23.340;2023-04-06T01:23:57;13.27;;;9.87;;
9689;SDS011;4884;42.614;23.340;2023-04-06T01:26:22;13.33;;;9.97;;
9689;SDS011;4884;42.614;23.340;2023-04-06T01:28:48;15.63;;;10.63;;
9689;SDS011;4884;42.614;23.340;2023-04-06T01:31:13;13.47;;;10.57;;
9689;SDS011;4884;42.614;23.340;2023-04-06T01:33:38;18.03;;;11.70;;
9689;SDS011;4884;42.614;23.340;2023-04-06T01:36:04;15.30;;;10.93;;
9689;SDS011;4884;42.614;23.340;2023-04-06T01:38:30;16.43;;;12.23;;
9689;SDS011;4884;42.614;23.340;2023-04-06T01:40:55;16.87;;;12.73;;
9689;SDS011;4884;42.614;23.340;2023-04-06T01:43:21;15.90;;;11.83;;
9689;SDS011;4884;42.614;23.340;2023-04-06T01:45:47;13.50;;;10.33;;
9689;SDS011;4884;42.614;23.340;2023-04-06T01:48:12;14.67;;;10.40;;
9689;SDS011;4884;42.614;23.340;2023-04-06T01:50:37;10.17;;;8.70;;
9689;SDS011;4884;42.614;23.340;2023-04-06T01:53:03;16.40;;;11.47;;
9689;SDS011;4884;42.614;23.340;2023-04-06T01:55:28;16.03;;;10.37;;
9689;SDS011;4884;42.614;23.340;2023-04-06T01:57:53;15.43;;;11.47;;
9689;SDS011;4884;42.614;23.340;2023-04-06T02:00:19;14.47;;;11.07;;
9689;SDS011;4884;42.614;23.340;2023-04-06T02:02:44;16.33;;;10.33;;
9689;SDS011;4884;42.614;23.340;2023-04-06T02:05:10;13.60;;;9.57;;
9689;SDS011;4884;42.614;23.340;2023-04-06T02:07:35;14.27;;;10.13;;
9689;SDS011;4884;42.614;23.340;2023-04-06T02:10:01;14.60;;;9.93;;
9689;SDS011;4884;42.614;23.340;2023-04-06T02:12:27;18.17;;;12.63;;
9689;SDS011;4884;42.614;23.340;2023-04-06T02:14:52;19.47;;;11.50;;
9689;SDS011;4884;42.614;23.340;2023-04-06T02:17:18;16.90;;;11.47;;
9689;SDS011;4884;42.614;23.340;2023-04-06T02:19:43;20.23;;;12.60;;
9689;SDS011;4884;42.614;23.340;2023-04-06T02:22:09;19.17;;;13.10;;
9689;SDS011;4884;42.614;23.340;2023-04-06T02:24:34;14.47;;;9.27;;
9689;SDS011;4884;42.614;23.340;2023-04-06T02:27:00;15.40;;;10.50;;
9689;SDS011;4884;42.614;23.340;2023-04-06T02:29:26;15.63;;;10.40;;
9689;SDS011;4884;42.614;23.340;2023-04-06T02:31:51;16.67;;;11.60;;
9689;SDS011;4884;42.614;23.340;2023-04-06T02:34:17;17.17;;;12.10;;
9689;SDS011;4884;42.614;23.340;2023-04-06T02:36:45;16.83;;;11.17;;
9689;SDS011;4884;42.614;23.340;2023-04-06T02:39:11;15.60;;;10.90;;
9689;SDS011;4884;42.614;23.340;2023-04-06T02:41:38;16.83;;;11.73;;
9689;SDS011;4884;42.614;23.340;2023-04-06T02:44:05;12.93;;;9.63;;
9689;SDS011;4884;42.614;23.340;2023-04-06T02:46:32;14.63;;;9.83;;
9689;SDS011;4884;42.614;23.340;2023-04-06T02:48:57;12.03;;;9.47;;
9689;SDS011;4884;42.614;23.340;2023-04-06T02:51:25;18.13;;;11.20;;
9689;SDS011;4884;42.614;23.340;2023-04-06T02:53:50;15.37;;;9.33;;
9689;SDS011;4884;42.614;23.340;2023-04-06T02:56:16;13.13;;;9.37;;
9689;SDS011;4884;42.614;23.340;2023-04-06T02:58:41;12.73;;;9.27;;
9689;SDS011;4884;42.614;23.340;2023-04-06T03:01:06;14.47;;;8.63;;
9689;SDS011;4884;42.614;23.340;2023-04-06T03:03:32;14.83;;;9.27;;
9689;SDS011;4884;42.614;23.340;2023-04-06T03:05:57;12.30;;;9.07;;
9689;SDS011;4884;42.614;23.340;2023-04-06T03:08:24;13.07;;;9.27;;
9689;SDS011;4884;42.614;23.340;2023-04-06T03:10:50;19.87;;;12.30;;
9689;SDS011;4884;42.614;23.340;2023-04-06T03:13:15;17.00;;;10.40;;
9689;SDS011;4884;42.614;23.340;2023-04-06T03:15:41;15.23;;;8.87;;
9689;SDS011;4884;42.614;23.340;2023-04-06T03:18:06;12.33;;;9.10;;
9689;SDS011;4884;42.614;23.340;2023-04-06T03:20:31;13.90;;;8.80;;
9689;SDS011;4884;42.614;23.340;2023-04-06T03:22:57;13.40;;;9.40;;
9689;SDS011;4884;42.614;23.340;2023-04-06T03:25:23;11.40;;;9.60;;
9689;SDS011;4884;42.614;23.340;2023-04-06T03:27:48;13.83;;;9.83;;
9689;SDS011;4884;42.614;23.340;2023-04-06T03:30:13;11.23;;;9.57;;
9689;SDS011;4884;42.614;23.340;2023-04-06T03:32:41;10.73;;;8.57;;
9689;SDS011;4884;42.614;23.340;2023-04-06T03:35:06;14.00;;;10.30;;
9689;SDS011;4884;42.614;23.340;2023-04-06T03:37:32;7.77;;;6.77;;
9689;SDS011;4884;42.614;23.340;2023-04-06T03:39:57;12.77;;;10.13;;
9689;SDS011;4884;42.614;23.340;2023-04-06T03:42:22;9.50;;;8.00;;
9689;SDS011;4884;42.614;23.340;2023-04-06T03:44:48;11.17;;;8.60;;
9689;SDS011;4884;42.614;23.340;2023-04-06T03:47:13;11.27;;;8.10;;
9689;SDS011;4884;42.614;23.340;2023-04-06T03:49:38;14.20;;;10.00;;
9689;SDS011;4884;42.614;23.340;2023-04-06T03:52:04;10.73;;;7.80;;
9689;SDS011;4884;42.614;23.340;2023-04-06T03:54:29;11.60;;;8.37;;
9689;SDS011;4884;42.614;23.340;2023-04-06T03:56:55;14.10;;;9.87;;
9689;SDS011;4884;42.614;23.340;2023-04-06T03:59:20;8.70;;;7.47;;
9689;SDS011;4884;42.614;23.340;2023-04-06T04:01:45;10.73;;;8.37;;
9689;SDS011;4884;42.614;23.340;2023-04-06T04:04:11;13.67;;;10.67;;
9689;SDS011;4884;42.614;23.340;2023-04-06T04:06:36;15.43;;;10.83;;
9689;SDS011;4884;42.614;23.340;2023-04-06T04:09:02;14.23;;;10.10;;
9689;SDS011;4884;42.614;23.340;2023-04-06T04:11:28;13.77;;;9.93;;
9689;SDS011;4884;42.614;23.340;2023-04-06T04:13:53;16.27;;;10.63;;
9689;SDS011;4884;42.614;23.340;2023-04-06T04:16:18;14.00;;;9.83;;
9689;SDS011;4884;42.614;23.340;2023-04-06T04:18:44;10.00;;;7.17;;
9689;SDS011;4884;42.614;23.340;2023-04-06T04:21:10;9.03;;;6.83;;
9689;SDS011;4884;42.614;23.340;2023-04-06T04:23:35;21.73;;;15.00;;
9689;SDS011;4884;42.614;23.340;2023-04-06T04:26:01;17.40;;;11.20;;
9689;SDS011;4884;42.614;23.340;2023-04-06T04:28:26;12.93;;;9.00;;
9689;SDS011;4884;42.614;23.340;2023-04-06T04:30:52;13.47;;;10.00;;
9689;SDS011;4884;42.614;23.340;2023-04-06T04:33:17;13.97;;;8.23;;
9689;SDS011;4884;42.614;23.340;2023-04-06T04:35:42;13.47;;;9.93;;
9689;SDS011;4884;42.614;23.340;2023-04-06T04:38:08;9.90;;;7.63;;
9689;SDS011;4884;42.614;23.340;2023-04-06T04:40:33;12.50;;;9.20;;
9689;SDS011;4884;42.614;23.340;2023-04-06T04:42:58;12.20;;;9.57;;
9689;SDS011;4884;42.614;23.340;2023-04-06T04:45:24;15.53;;;9.60;;
9689;SDS011;4884;42.614;23.340;2023-04-06T04:47:49;11.30;;;9.00;;
9689;SDS011;4884;42.614;23.340;2023-04-06T04:50:15;13.13;;;8.47;;
9689;SDS011;4884;42.614;23.340;2023-04-06T04:52:40;13.00;;;9.03;;
9689;SDS011;4884;42.614;23.340;2023-04-06T04:55:06;11.27;;;9.00;;
9689;SDS011;4884;42.614;23.340;2023-04-06T04:57:31;11.40;;;8.40;;
9689;SDS011;4884;42.614;23.340;2023-04-06T04:59:57;12.57;;;9.17;;
9689;SDS011;4884;42.614;23.340;2023-04-06T05:02:22;14.60;;;10.37;;
9689;SDS011;4884;42.614;23.340;2023-04-06T05:04:48;10.40;;;6.73;;
9689;SDS011;4884;42.614;23.340;2023-04-06T05:07:13;43.60;;;25.23;;
9689;SDS011;4884;42.614;23.340;2023-04-06T05:09:40;9.63;;;7.73;;
9689;SDS011;4884;42.614;23.340;2023-04-06T05:12:06;8.37;;;6.73;;
9689;SDS011;4884;42.614;23.340;2023-04-06T05:14:31;10.90;;;9.27;;
9689;SDS011;4884;42.614;23.340;2023-04-06T05:16:57;12.87;;;10.90;;
9689;SDS011;4884;42.614;23.340;2023-04-06T05:19:22;12.10;;;10.37;;
9689;SDS011;4884;42.614;23.340;2023-04-06T05:21:48;10.00;;;8.20;;
9689;SDS011;4884;42.614;23.340;2023-04-06T05:24:13;21.10;;;18.83;;
9689;SDS011;4884;42.614;23.340;2023-04-06T05:26:39;10.40;;;9.30;;
9689;SDS011;4884;42.614;23.340;2023-04-06T05:29:04;14.20;;;7.03;;
9689;SDS011;4884;42.614;23.340;2023-04-06T05:31:30;10.40;;;7.50;;
9689;SDS011;4884;42.614;23.340;2023-04-06T05:33:56;7.80;;;6.97;;
9689;SDS011;4884;42.614;23.340;2023-04-06T05:36:21;5.53;;;5.03;;
9689;SDS011;4884;42.614;23.340;2023-04-06T05:38:47;8.70;;;7.80;;
9689;SDS011;4884;42.614;23.340;2023-04-06T05:41:12;11.17;;;6.00;;
9689;SDS011;4884;42.614;23.340;2023-04-06T05:43:38;6.27;;;4.83;;
9689;SDS011;4884;42.614;23.340;2023-04-06T05:46:03;9.53;;;8.33;;
9689;SDS011;4884;42.614;23.340;2023-04-06T05:48:29;6.67;;;6.03;;
9689;SDS011;4884;42.614;23.340;2023-04-06T05:50:54;7.77;;;6.17;;
9689;SDS011;4884;42.614;23.340;2023-04-06T05:53:20;8.90;;;7.20;;
9689;SDS011;4884;42.614;23.340;2023-04-06T05:55:46;8.17;;;5.73;;
9689;SDS011;4884;42.614;23.340;2023-04-06T05:58:11;7.70;;;6.77;;
9689;SDS011;4884;42.614;23.340;2023-04-06T06:00:37;11.20;;;6.93;;
9689;SDS011;4884;42.614;23.340;2023-04-06T06:03:02;7.30;;;6.03;;
9689;SDS011;4884;42.614;23.340;2023-04-06T06:05:31;6.83;;;5.93;;
9689;SDS011;4884;42.614;23.340;2023-04-06T06:07:56;8.47;;;7.27;;
9689;SDS011;4884;42.614;23.340;2023-04-06T06:10:22;7.37;;;6.63;;
9689;SDS011;4884;42.614;23.340;2023-04-06T06:12:47;9.53;;;6.83;;
9689;SDS011;4884;42.614;23.340;2023-04-06T06:15:13;9.83;;;7.20;;
9689;SDS011;4884;42.614;23.340;2023-04-06T06:17:38;10.43;;;9.20;;
9689;SDS011;4884;42.614;23.340;2023-04-06T06:20:05;8.23;;;7.30;;
9689;SDS011;4884;42.614;23.340;2023-04-06T06:22:31;11.30;;;7.50;;
9689;SDS011;4884;42.614;23.340;2023-04-06T06:24:57;10.90;;;9.47;;
9689;SDS011;4884;42.614;23.340;2023-04-06T06:27:22;9.53;;;7.57;;
9689;SDS011;4884;42.614;23.340;2023-04-06T06:29:47;7.50;;;6.80;;
9689;SDS011;4884;42.614;23.340;2023-04-06T06:32:13;11.30;;;7.23;;
9689;SDS011;4884;42.614;23.340;2023-04-06T06:34:39;9.03;;;6.50;;
9689;SDS011;4884;42.614;23.340;2023-04-06T06:37:05;11.20;;;8.80;;
9689;SDS011;4884;42.614;23.340;2023-04-06T06:39:31;7.80;;;7.00;;
9689;SDS011;4884;42.614;23.340;2023-04-06T06:41:56;6.93;;;5.60;;
9689;SDS011;4884;42.614;23.340;2023-04-06T06:44:21;5.67;;;5.13;;
9689;SDS011;4884;42.614;23.340;2023-04-06T06:46:47;9.27;;;6.60;;
9689;SDS011;4884;42.614;23.340;2023-04-06T06:49:13;6.30;;;5.57;;
9689;SDS011;4884;42.614;23.340;2023-04-06T06:51:39;7.27;;;5.93;;
9689;SDS011;4884;42.614;23.340;2023-04-06T06:54:04;5.67;;;5.17;;
9689;SDS011;4884;42.614;23.340;2023-04-06T06:56:30;6.37;;;4.97;;
9689;SDS011;4884;42.614;23.340;2023-04-06T06:58:56;7.30;;;6.60;;
9689;SDS011;4884;42.614;23.340;2023-04-06T07:01:21;9.23;;;6.00;;
9689;SDS011;4884;42.614;23.340;2023-04-06T07:03:46;8.90;;;6.73;;
9689;SDS011;4884;42.614;23.340;2023-04-06T07:06:12;8.40;;;5.53;;
9689;SDS011;4884;42.614;23.340;2023-04-06T07:08:37;6.43;;;5.80;;
9689;SDS011;4884;42.614;23.340;2023-04-06T07:11:02;8.53;;;6.87;;
9689;SDS011;4884;42.614;23.340;2023-04-06T07:13:28;7.07;;;6.23;;
9689;SDS011;4884;42.614;23.340;2023-04-06T07:15:54;8.13;;;6.63;;
9689;SDS011;4884;42.614;23.340;2023-04-06T07:18:19;15.13;;;13.47;;
9689;SDS011;4884;42.614;23.340;2023-04-06T07:20:45;8.57;;;6.70;;
9689;SDS011;4884;42.614;23.340;2023-04-06T07:23:10;9.13;;;5.50;;
9689;SDS011;4884;42.614;23.340;2023-04-06T07:25:36;7.50;;;6.60;;
9689;SDS011;4884;42.614;23.340;2023-04-06T07:28:02;7.00;;;6.40;;
9689;SDS011;4884;42.614;23.340;2023-04-06T07:30:28;7.70;;;6.03;;
9689;SDS011;4884;42.614;23.340;2023-04-06T07:32:54;5.83;;;5.23;;
9689;SDS011;4884;42.614;23.340;2023-04-06T07:35:24;8.83;;;6.50;;
9689;SDS011;4884;42.614;23.340;2023-04-06T07:37:49;6.13;;;5.60;;
9689;SDS011;4884;42.614;23.340;2023-04-06T07:40:15;6.27;;;5.63;;
9689;SDS011;4884;42.614;23.340;2023-04-06T07:42:40;6.80;;;5.73;;
9689;SDS011;4884;42.614;23.340;2023-04-06T07:45:06;9.57;;;6.77;;
9689;SDS011;4884;42.614;23.340;2023-04-06T07:47:32;12.33;;;7.67;;
9689;SDS011;4884;42.614;23.340;2023-04-06T07:49:58;8.63;;;7.17;;
9689;SDS011;4884;42.614;23.340;2023-04-06T07:52:23;10.27;;;8.37;;
9689;SDS011;4884;42.614;23.340;2023-04-06T07:54:49;8.90;;;7.47;;
9689;SDS011;4884;42.614;23.340;2023-04-06T07:57:14;13.10;;;8.27;;
9689;SDS011;4884;42.614;23.340;2023-04-06T07:59:40;12.90;;;7.50;;
9689;SDS011;4884;42.614;23.340;2023-04-06T08:02:05;8.83;;;5.93;;
9689;SDS011;4884;42.614;23.340;2023-04-06T08:04:31;6.60;;;5.93;;
9689;SDS011;4884;42.614;23.340;2023-04-06T08:06:56;10.83;;;7.67;;
9689;SDS011;4884;42.614;23.340;2023-04-06T08:09:21;9.43;;;7.70;;
9689;SDS011;4884;42.614;23.340;2023-04-06T08:11:47;6.30;;;5.70;;
9689;SDS011;4884;42.614;23.340;2023-04-06T08:14:13;5.17;;;4.67;;
9689;SDS011;4884;42.614;23.340;2023-04-06T08:16:40;8.10;;;5.93;;
9689;SDS011;4884;42.614;23.340;2023-04-06T08:19:05;7.93;;;5.57;;
9689;SDS011;4884;42.614;23.340;2023-04-06T08:21:34;7.63;;;5.70;;
9689;SDS011;4884;42.614;23.340;2023-04-06T08:24:00;11.00;;;5.57;;
9689;SDS011;4884;42.614;23.340;2023-04-06T08:26:25;6.83;;;6.10;;
9689;SDS011;4884;42.614;23.340;2023-04-06T08:28:51;8.70;;;6.90;;
9689;SDS011;4884;42.614;23.340;2023-04-06T08:31:16;6.37;;;5.77;;
9689;SDS011;4884;42.614;23.340;2023-04-06T08:33:41;6.07;;;5.43;;
9689;SDS011;4884;42.614;23.340;2023-04-06T08:36:10;8.23;;;6.67;;
9689;SDS011;4884;42.614;23.340;2023-04-06T08:38:37;9.17;;;7.00;;
9689;SDS011;4884;42.614;23.340;2023-04-06T08:41:06;7.27;;;5.60;;
9689;SDS011;4884;42.614;23.340;2023-04-06T08:44:17;7.87;;;7.07;;
9689;SDS011;4884;42.614;23.340;2023-04-06T08:46:24;7.60;;;6.30;;
9689;SDS011;4884;42.614;23.340;2023-04-06T08:48:54;10.67;;;6.73;;
9689;SDS011;4884;42.614;23.340;2023-04-06T08:51:21;9.93;;;8.33;;
9689;SDS011;4884;42.614;23.340;2023-04-06T08:53:48;9.70;;;8.67;;
9689;SDS011;4884;42.614;23.340;2023-04-06T08:56:14;11.50;;;7.60;;
9689;SDS011;4884;42.614;23.340;2023-04-06T08:58:40;10.07;;;8.47;;
9689;SDS011;4884;42.614;23.340;2023-04-06T09:01:07;8.70;;;6.87;;
9689;SDS011;4884;42.614;23.340;2023-04-06T09:03:39;7.73;;;6.80;;
9689;SDS011;4884;42.614;23.340;2023-04-06T09:06:06;5.70;;;5.20;;
9689;SDS011;4884;42.614;23.340;2023-04-06T09:08:35;7.43;;;6.23;;
9689;SDS011;4884;42.614;23.340;2023-04-06T09:11:03;6.63;;;6.03;;
9689;SDS011;4884;42.614;23.340;2023-04-06T09:13:28;9.57;;;7.57;;
9689;SDS011;4884;42.614;23.340;2023-04-06T09:15:58;11.23;;;7.10;;
9689;SDS011;4884;42.614;23.340;2023-04-06T09:18:30;7.77;;;7.07;;
9689;SDS011;4884;42.614;23.340;2023-04-06T09:21:03;7.17;;;6.40;;
9689;SDS011;4884;42.614;23.340;2023-04-06T09:23:30;7.07;;;6.37;;
9689;SDS011;4884;42.614;23.340;2023-04-06T09:28:46;6.53;;;5.93;;
9689;SDS011;4884;42.614;23.340;2023-04-06T09:31:14;8.57;;;6.87;;
9689;SDS011;4884;42.614;23.340;2023-04-06T09:33:53;6.47;;;5.87;;
9689;SDS011;4884;42.614;23.340;2023-04-06T09:36:19;6.80;;;6.10;;
9689;SDS011;4884;42.614;23.340;2023-04-06T09:38:51;7.40;;;6.70;;
9689;SDS011;4884;42.614;23.340;2023-04-06T09:41:24;6.23;;;5.63;;
9689;SDS011;4884;42.614;23.340;2023-04-06T09:43:51;6.97;;;6.37;;
9689;SDS011;4884;42.614;23.340;2023-04-06T09:46:17;7.13;;;6.43;;
9689;SDS011;4884;42.614;23.340;2023-04-06T09:48:46;7.30;;;6.60;;
9689;SDS011;4884;42.614;23.340;2023-04-06T09:51:12;7.93;;;7.13;;
9689;SDS011;4884;42.614;23.340;2023-04-06T09:53:40;7.60;;;6.83;;
9689;SDS011;4884;42.614;23.340;2023-04-06T09:56:07;7.60;;;6.80;;
9689;SDS011;4884;42.614;23.340;2023-04-06T09:58:37;7.13;;;6.53;;
9689;SDS011;4884;42.614;23.340;2023-04-06T10:01:07;10.30;;;7.70;;
9689;SDS011;4884;42.614;23.340;2023-04-06T10:06:07;8.27;;;7.50;;
9689;SDS011;4884;42.614;23.340;2023-04-06T10:08:36;8.07;;;7.33;;
9689;SDS011;4884;42.614;23.340;2023-04-06T10:11:05;9.63;;;7.33;;
9689;SDS011;4884;42.614;23.340;2023-04-06T10:13:31;8.57;;;7.50;;
9689;SDS011;4884;42.614;23.340;2023-04-06T10:15:57;8.57;;;7.77;;
9689;SDS011;4884;42.614;23.340;2023-04-06T10:18:22;9.83;;;7.67;;
9689;SDS011;4884;42.614;23.340;2023-04-06T10:23:31;8.17;;;7.37;;
9689;SDS011;4884;42.614;23.340;2023-04-06T10:25:59;8.27;;;7.50;;
9689;SDS011;4884;42.614;23.340;2023-04-06T10:28:25;13.43;;;7.60;;
9689;SDS011;4884;42.614;23.340;2023-04-06T10:30:59;8.50;;;7.70;;
9689;SDS011;4884;42.614;23.340;2023-04-06T10:33:26;8.47;;;7.70;;
9689;SDS011;4884;42.614;23.340;2023-04-06T10:35:51;9.07;;;8.03;;
9689;SDS011;4884;42.614;23.340;2023-04-06T10:38:18;13.47;;;10.33;;
9689;SDS011;4884;42.614;23.340;2023-04-06T10:40:46;8.93;;;7.50;;
9689;SDS011;4884;42.614;23.340;2023-04-06T10:43:13;11.63;;;8.53;;
9689;SDS011;4884;42.614;23.340;2023-04-06T10:45:43;11.17;;;9.70;;
9689;SDS011;4884;42.614;23.340;2023-04-06T10:48:13;11.43;;;9.83;;
9689;SDS011;4884;42.614;23.340;2023-04-06T10:50:39;10.57;;;8.93;;
9689;SDS011;4884;42.614;23.340;2023-04-06T10:53:05;10.50;;;8.73;;
9689;SDS011;4884;42.614;23.340;2023-04-06T10:55:31;9.27;;;8.37;;
9689;SDS011;4884;42.614;23.340;2023-04-06T10:57:57;11.63;;;10.33;;
9689;SDS011;4884;42.614;23.340;2023-04-06T11:00:22;10.43;;;9.47;;
9689;SDS011;4884;42.614;23.340;2023-04-06T11:02:48;11.50;;;9.43;;
9689;SDS011;4884;42.614;23.340;2023-04-06T11:05:14;11.13;;;9.50;;
9689;SDS011;4884;42.614;23.340;2023-04-06T11:07:39;13.83;;;10.63;;
9689;SDS011;4884;42.614;23.340;2023-04-06T11:10:05;11.27;;;10.17;;
9689;SDS011;4884;42.614;23.340;2023-04-06T11:12:32;12.53;;;11.20;;
9689;SDS011;4884;42.614;23.340;2023-04-06T11:14:58;11.17;;;10.03;;
9689;SDS011;4884;42.614;23.340;2023-04-06T11:17:29;12.57;;;11.27;;
9689;SDS011;4884;42.614;23.340;2023-04-06T11:19:56;11.40;;;10.20;;
9689;SDS011;4884;42.614;23.340;2023-04-06T11:22:22;11.10;;;10.00;;
9689;SDS011;4884;42.614;23.340;2023-04-06T11:24:47;10.77;;;9.67;;
9689;SDS011;4884;42.614;23.340;2023-04-06T11:27:13;12.30;;;9.67;;
9689;SDS011;4884;42.614;23.340;2023-04-06T11:29:40;11.00;;;9.90;;
9689;SDS011;4884;42.614;23.340;2023-04-06T11:32:06;13.30;;;10.60;;
9689;SDS011;4884;42.614;23.340;2023-04-06T11:34:33;11.00;;;9.77;;
9689;SDS011;4884;42.614;23.340;2023-04-06T11:37:02;10.97;;;9.93;;
9689;SDS011;4884;42.614;23.340;2023-04-06T11:39:30;10.90;;;9.80;;
9689;SDS011;4884;42.614;23.340;2023-04-06T11:41:58;12.53;;;9.33;;
9689;SDS011;4884;42.614;23.340;2023-04-06T11:44:33;11.87;;;10.30;;
9689;SDS011;4884;42.614;23.340;2023-04-06T11:47:03;12.10;;;10.90;;
9689;SDS011;4884;42.614;23.340;2023-04-06T11:49:29;13.30;;;11.13;;
9689;SDS011;4884;42.614;23.340;2023-04-06T11:51:56;13.07;;;10.27;;
9689;SDS011;4884;42.614;23.340;2023-04-06T11:57:00;11.07;;;10.07;;
9689;SDS011;4884;42.614;23.340;2023-04-06T11:59:27;10.97;;;9.67;;
9689;SDS011;4884;42.614;23.340;2023-04-06T12:01:52;10.57;;;9.27;;
9689;SDS011;4884;42.614;23.340;2023-04-06T12:04:18;12.77;;;10.47;;
9689;SDS011;4884;42.614;23.340;2023-04-06T12:06:44;11.90;;;9.67;;
9689;SDS011;4884;42.614;23.340;2023-04-06T12:09:09;17.80;;;11.97;;
9689;SDS011;4884;42.614;23.340;2023-04-06T12:11:35;13.10;;;10.80;;
9689;SDS011;4884;42.614;23.340;2023-04-06T12:14:00;11.30;;;9.47;;
9689;SDS011;4884;42.614;23.340;2023-04-06T12:16:29;14.23;;;12.63;;
9689;SDS011;4884;42.614;23.340;2023-04-06T12:18:55;11.10;;;10.00;;
9689;SDS011;4884;42.614;23.340;2023-04-06T12:21:21;10.43;;;9.40;;
9689;SDS011;4884;42.614;23.340;2023-04-06T12:23:46;10.83;;;9.37;;
9689;SDS011;4884;42.614;23.340;2023-04-06T12:26:11;12.00;;;9.77;;
9689;SDS011;4884;42.614;23.340;2023-04-06T12:28:37;12.57;;;10.67;;
9689;SDS011;4884;42.614;23.340;2023-04-06T12:31:02;11.87;;;10.07;;
9689;SDS011;4884;42.614;23.340;2023-04-06T12:33:28;16.10;;;10.30;;
9689;SDS011;4884;42.614;23.340;2023-04-06T12:35:53;15.03;;;9.57;;
9689;SDS011;4884;42.614;23.340;2023-04-06T12:38:19;12.53;;;9.43;;
9689;SDS011;4884;42.614;23.340;2023-04-06T12:40:45;10.90;;;9.57;;
9689;SDS011;4884;42.614;23.340;2023-04-06T12:43:10;12.80;;;10.87;;
9689;SDS011;4884;42.614;23.340;2023-04-06T12:45:37;10.93;;;9.83;;
9689;SDS011;4884;42.614;23.340;2023-04-06T12:48:03;11.33;;;10.13;;
9689;SDS011;4884;42.614;23.340;2023-04-06T12:50:28;12.30;;;9.87;;
9689;SDS011;4884;42.614;23.340;2023-04-06T12:52:54;15.23;;;10.30;;
9689;SDS011;4884;42.614;23.340;2023-04-06T12:55:19;14.13;;;12.47;;
9689;SDS011;4884;42.614;23.340;2023-04-06T12:57:46;13.37;;;12.00;;
9689;SDS011;4884;42.614;23.340;2023-04-06T13:00:12;22.53;;;15.50;;
9689;SDS011;4884;42.614;23.340;2023-04-06T13:02:42;114.23;;;87.00;;
9689;SDS011;4884;42.614;23.340;2023-04-06T13:05:11;72.00;;;64.90;;
9689;SDS011;4884;42.614;23.340;2023-04-06T13:07:38;43.03;;;38.90;;
9689;SDS011;4884;42.614;23.340;2023-04-06T13:10:03;31.63;;;28.33;;
9689;SDS011;4884;42.614;23.340;2023-04-06T13:12:29;40.07;;;36.27;;
9689;SDS011;4884;42.614;23.340;2023-04-06T13:14:54;12.93;;;11.50;;
9689;SDS011;4884;42.614;23.340;2023-04-06T13:17:20;38.43;;;34.73;;
9689;SDS011;4884;42.614;23.340;2023-04-06T13:19:46;50.10;;;45.47;;
9689;SDS011;4884;42.614;23.340;2023-04-06T13:22:11;19.87;;;17.97;;
9689;SDS011;4884;42.614;23.340;2023-04-06T13:24:36;12.90;;;11.27;;
9689;SDS011;4884;42.614;23.340;2023-04-06T13:27:02;14.97;;;10.97;;
9689;SDS011;4884;42.614;23.340;2023-04-06T13:29:27;14.33;;;10.57;;
9689;SDS011;4884;42.614;23.340;2023-04-06T13:31:53;11.23;;;9.53;;
9689;SDS011;4884;42.614;23.340;2023-04-06T13:34:18;14.63;;;11.57;;
9689;SDS011;4884;42.614;23.340;2023-04-06T13:36:43;12.17;;;10.67;;
9689;SDS011;4884;42.614;23.340;2023-04-06T13:39:09;24.30;;;18.97;;
9689;SDS011;4884;42.614;23.340;2023-04-06T13:41:34;11.93;;;10.60;;
9689;SDS011;4884;42.614;23.340;2023-04-06T13:44:00;13.33;;;11.10;;
9689;SDS011;4884;42.614;23.340;2023-04-06T13:46:25;15.10;;;12.27;;
9689;SDS011;4884;42.614;23.340;2023-04-06T13:48:52;19.50;;;12.00;;
9689;SDS011;4884;42.614;23.340;2023-04-06T13:51:17;16.20;;;11.20;;
9689;SDS011;4884;42.614;23.340;2023-04-06T13:53:42;13.23;;;11.90;;
9689;SDS011;4884;42.614;23.340;2023-04-06T13:56:08;19.40;;;12.50;;
9689;SDS011;4884;42.614;23.340;2023-04-06T13:58:33;14.37;;;11.30;;
9689;SDS011;4884;42.614;23.340;2023-04-06T14:01:02;13.23;;;11.83;;
9689;SDS011;4884;42.614;23.340;2023-04-06T14:03:29;13.20;;;11.07;;
9689;SDS011;4884;42.614;23.340;2023-04-06T14:05:54;11.03;;;9.93;;
9689;SDS011;4884;42.614;23.340;2023-04-06T14:08:20;16.47;;;10.93;;
9689;SDS011;4884;42.614;23.340;2023-04-06T14:10:45;12.33;;;9.57;;
9689;SDS011;4884;42.614;23.340;2023-04-06T14:13:11;13.73;;;10.53;;
9689;SDS011;4884;42.614;23.340;2023-04-06T14:15:37;13.13;;;11.00;;
9689;SDS011;4884;42.614;23.340;2023-04-06T14:18:03;12.23;;;10.93;;
9689;SDS011;4884;42.614;23.340;2023-04-06T14:20:30;10.87;;;9.77;;
9689;SDS011;4884;42.614;23.340;2023-04-06T14:22:56;15.27;;;10.47;;
9689;SDS011;4884;42.614;23.340;2023-04-06T14:25:21;11.93;;;10.23;;
9689;SDS011;4884;42.614;23.340;2023-04-06T14:27:47;11.50;;;9.70;;
9689;SDS011;4884;42.614;23.340;2023-04-06T14:30:12;13.90;;;11.30;;
9689;SDS011;4884;42.614;23.340;2023-04-06T14:32:38;17.17;;;11.67;;
9689;SDS011;4884;42.614;23.340;2023-04-06T14:35:04;18.67;;;13.57;;
9689;SDS011;4884;42.614;23.340;2023-04-06T14:37:30;20.37;;;13.77;;
9689;SDS011;4884;42.614;23.340;2023-04-06T14:39:55;32.67;;;18.27;;
9689;SDS011;4884;42.614;23.340;2023-04-06T14:42:21;46.53;;;27.50;;
9689;SDS011;4884;42.614;23.340;2023-04-06T14:44:46;25.57;;;17.03;;
9689;SDS011;4884;42.614;23.340;2023-04-06T14:47:13;22.33;;;18.13;;
9689;SDS011;4884;42.614;23.340;2023-04-06T14:49:40;78.17;;;40.80;;